Time;durP1;ratioP1;P1;durP2;ratioP2;P2;SDS_P1;SDS_P2;PMS_P1;PMS_P2;Temp;Humidity;BMP_temperature;BMP_pressure;BME280_temperature;BME280_humidity;BME280_pressure;Samples;Min_cycle;Max_cycle;Signal;HPM_P1;HPM_P2
2024/04/14 00:00:47;;;;;;;3.10;2.80;;;14.40;93.50;;;;;;5445864;26;20566;-81
2024/04/14 00:03:16;;;;;;;3.50;3.17;;;14.40;93.70;;;;;;5473558;26;21233;-81
2024/04/14 00:05:43;;;;;;;4.00;3.37;;;14.30;92.80;;;;;;5470583;26;20608;-81
2024/04/14 00:08:12;;;;;;;3.17;2.87;;;14.30;92.60;;;;;;5451871;26;20682;-82
2024/04/14 00:10:38;;;;;;;3.23;2.93;;;14.20;93.20;;;;;;5470896;26;20666;-81
2024/04/14 00:13:10;;;;;;;5.00;3.70;;;14.20;93.20;;;;;;5470303;26;20661;-81
2024/04/14 00:15:36;;;;;;;4.37;3.53;;;14.20;93.50;;;;;;5472282;26;20610;-81
2024/04/14 00:18:05;;;;;;;3.63;3.23;;;14.00;94.10;;;;;;5469687;26;20553;-81
2024/04/14 00:20:32;;;;;;;4.83;3.17;;;14.00;94.20;;;;;;5471127;26;20618;-82
2024/04/14 00:23:01;;;;;;;4.33;3.10;;;14.00;94.30;;;;;;5471072;26;20572;-82
2024/04/14 00:25:27;;;;;;;4.10;2.80;;;13.80;94.90;;;;;;5472655;26;21127;-83
2024/04/14 00:27:56;;;;;;;3.20;2.90;;;13.80;95.20;;;;;;5473294;26;20560;-82
2024/04/14 00:30:25;;;;;;;3.30;3.00;;;13.80;94.90;;;;;;5459230;26;20569;-81
2024/04/14 00:32:54;;;;;;;3.60;2.90;;;13.90;94.80;;;;;;5469322;26;21279;-82
2024/04/14 00:35:21;;;;;;;3.33;3.03;;;13.80;95.00;;;;;;5470506;26;20549;-81
2024/04/14 00:37:50;;;;;;;4.20;3.23;;;13.80;95.00;;;;;;5471406;26;20572;-81
2024/04/14 00:40:16;;;;;;;3.17;2.97;;;13.80;94.90;;;;;;5471416;26;20561;-82
2024/04/14 00:42:45;;;;;;;5.23;3.23;;;13.70;94.70;;;;;;5476316;26;20544;-81
2024/04/14 00:45:11;;;;;;;3.83;3.27;;;13.70;95.20;;;;;;5482085;26;20564;-81
2024/04/14 00:47:43;;;;;;;3.40;3.03;;;13.70;95.30;;;;;;5472637;26;21197;-81
2024/04/14 00:50:09;;;;;;;3.87;2.90;;;13.70;95.10;;;;;;5454144;26;20565;-81
2024/04/14 00:52:38;;;;;;;4.83;2.83;;;13.70;95.10;;;;;;5470103;26;20560;-81
2024/04/14 00:55:05;;;;;;;4.17;2.80;;;13.70;94.90;;;;;;5471460;26;20784;-81
2024/04/14 00:57:37;;;;;;;3.70;2.60;;;13.70;95.10;;;;;;5479530;26;21211;-81
2024/04/14 01:00:05;;;;;;;4.43;3.03;;;13.60;95.10;;;;;;5475845;26;20608;-81
2024/04/14 01:02:35;;;;;;;3.30;3.00;;;13.50;95.00;;;;;;5475594;26;21010;-80
2024/04/14 01:05:05;;;;;;;2.97;2.73;;;13.50;95.00;;;;;;5470342;26;20629;-80
2024/04/14 01:07:34;;;;;;;4.77;3.13;;;13.50;95.10;;;;;;5464193;26;20952;-81
2024/04/14 01:10:02;;;;;;;3.77;3.10;;;13.40;95.30;;;;;;5462064;26;21215;-81
2024/04/14 01:12:30;;;;;;;3.10;2.83;;;13.40;95.30;;;;;;5470503;26;21069;-81
2024/04/14 01:14:57;;;;;;;5.17;3.17;;;13.40;95.50;;;;;;5470608;26;20553;-80
2024/04/14 01:17:26;;;;;;;3.73;2.80;;;13.40;94.90;;;;;;5470579;26;20560;-80
2024/04/14 01:19:52;;;;;;;4.10;3.00;;;13.30;95.20;;;;;;5472517;26;20564;-80
2024/04/14 01:22:24;;;;;;;3.77;2.90;;;13.40;94.80;;;;;;5472425;26;20557;-81
2024/04/14 01:24:51;;;;;;;3.97;2.77;;;13.50;94.80;;;;;;5465348;26;20652;-81
2024/04/14 01:27:22;;;;;;;3.53;2.83;;;13.50;94.40;;;;;;5469321;26;20666;-81
2024/04/14 01:29:48;;;;;;;2.97;2.67;;;13.40;94.40;;;;;;5471390;26;20553;-80
2024/04/14 01:32:17;;;;;;;3.10;2.80;;;13.30;94.50;;;;;;5473129;26;20792;-81
2024/04/14 01:34:43;;;;;;;3.60;3.23;;;13.30;94.70;;;;;;5474200;26;20670;-81
2024/04/14 01:37:12;;;;;;;5.37;3.03;;;13.30;95.10;;;;;;5468557;26;20560;-81
2024/04/14 01:39:39;;;;;;;2.90;2.70;;;13.20;95.10;;;;;;5477883;26;21079;-81
2024/04/14 01:42:08;;;;;;;3.90;2.90;;;13.20;95.20;;;;;;5473922;26;20549;-81
2024/04/14 01:44:36;;;;;;;4.87;3.00;;;13.20;95.20;;;;;;5467063;26;21120;-81
2024/04/14 01:47:05;;;;;;;3.13;2.70;;;13.20;95.00;;;;;;5470129;26;20556;-81
2024/04/14 01:49:32;;;;;;;3.30;2.83;;;13.20;94.90;;;;;;5470961;26;20568;-82
2024/04/14 01:52:00;;;;;;;3.67;2.60;;;13.20;95.00;;;;;;5470485;26;20612;-81
2024/04/14 01:54:27;;;;;;;2.87;2.60;;;13.20;95.10;;;;;;5469782;26;20565;-82
2024/04/14 01:56:55;;;;;;;3.43;2.77;;;13.20;94.70;;;;;;5469190;26;20624;-82
2024/04/14 01:59:22;;;;;;;3.27;2.87;;;13.20;94.70;;;;;;5467083;26;20658;-81
2024/04/14 02:01:53;;;;;;;2.93;2.53;;;13.20;94.60;;;;;;5469291;26;20657;-81
2024/04/14 02:04:19;;;;;;;2.73;2.53;;;13.10;94.90;;;;;;5471117;26;21076;-81
2024/04/14 02:06:48;;;;;;;3.40;2.50;;;13.10;94.90;;;;;;5468627;26;20659;-81
2024/04/14 02:09:14;;;;;;;2.97;2.60;;;13.00;95.60;;;;;;5469157;26;20703;-81
2024/04/14 02:11:43;;;;;;;2.83;2.60;;;13.10;95.30;;;;;;5466413;26;21021;-81
2024/04/14 02:14:09;;;;;;;7.00;3.10;;;13.00;95.30;;;;;;5473411;26;20565;-81
2024/04/14 02:16:38;;;;;;;3.13;2.83;;;13.00;95.70;;;;;;5469685;26;20616;-81
2024/04/14 02:19:07;;;;;;;2.83;2.60;;;13.00;95.10;;;;;;5459612;26;20609;-81
2024/04/14 02:21:36;;;;;;;3.87;2.80;;;13.00;94.80;;;;;;5469123;26;21148;-81
2024/04/14 02:24:03;;;;;;;5.00;2.97;;;13.00;95.10;;;;;;5469303;26;20663;-81
2024/04/14 02:26:31;;;;;;;3.37;2.47;;;13.00;95.30;;;;;;5470398;26;20561;-81
2024/04/14 02:28:58;;;;;;;3.40;2.60;;;13.00;95.30;;;;;;5471520;26;20572;-80
2024/04/14 02:31:26;;;;;;;3.40;2.93;;;12.90;95.40;;;;;;5471690;26;20564;-80
2024/04/14 02:33:53;;;;;;;3.30;2.77;;;12.90;95.60;;;;;;5463513;26;20613;-81
2024/04/14 02:36:27;;;;;;;4.17;3.10;;;13.00;95.50;;;;;;5468251;26;20553;-80
2024/04/14 02:38:53;;;;;;;3.70;2.27;;;13.00;95.10;;;;;;5457044;26;21160;-81
2024/04/14 02:41:22;;;;;;;2.63;2.43;;;13.10;94.90;;;;;;5471908;26;20650;-81
2024/04/14 02:43:48;;;;;;;3.10;2.53;;;13.00;94.80;;;;;;5463313;26;20574;-81
2024/04/14 02:46:17;;;;;;;2.70;2.37;;;13.00;95.00;;;;;;5475222;26;20601;-81
2024/04/14 02:48:48;;;;;;;4.17;3.17;;;13.10;94.60;;;;;;5477449;26;20568;-81
2024/04/14 02:51:17;;;;;;;2.77;2.57;;;13.10;94.80;;;;;;5450924;25;20610;-82
2024/04/14 02:53:45;;;;;;;3.10;2.80;;;12.90;95.20;;;;;;5460487;26;20655;-81
2024/04/14 02:56:15;;;;;;;4.73;3.07;;;12.90;95.50;;;;;;5475033;26;20596;-81
2024/04/14 02:58:41;;;;;;;2.60;2.40;;;12.90;95.90;;;;;;5475302;26;20601;-81
2024/04/14 03:01:13;;;;;;;2.57;2.20;;;12.90;95.20;;;;;;5472229;26;20613;-82
2024/04/14 03:03:39;;;;;;;4.00;2.70;;;12.70;95.60;;;;;;5472098;26;20552;-84
2024/04/14 03:06:08;;;;;;;3.13;2.60;;;12.70;95.70;;;;;;5475189;26;20556;-81
2024/04/14 03:08:34;;;;;;;4.20;2.37;;;12.70;96.10;;;;;;5473464;26;20983;-82
2024/04/14 03:11:07;;;;;;;3.17;2.50;;;12.60;96.20;;;;;;5475594;26;20965;-82
2024/04/14 03:13:34;;;;;;;3.30;3.00;;;12.60;96.20;;;;;;5471657;26;20604;-81
2024/04/14 03:16:04;;;;;;;3.10;2.80;;;12.60;96.00;;;;;;5471553;26;20560;-81
2024/04/14 03:18:30;;;;;;;4.63;3.00;;;12.40;96.20;;;;;;5462448;26;20608;-81
2024/04/14 03:21:00;;;;;;;4.40;2.40;;;12.20;96.80;;;;;;5471258;26;20600;-81
2024/04/14 03:23:26;;;;;;;3.10;2.77;;;12.20;97.00;;;;;;5471683;26;20557;-81
2024/04/14 03:25:56;;;;;;;2.83;2.50;;;12.10;97.00;;;;;;5473325;26;20564;-81
2024/04/14 03:28:26;;;;;;;5.57;2.50;;;12.20;97.10;;;;;;5477206;26;20568;-81
2024/04/14 03:30:55;;;;;;;3.23;3.00;;;12.30;96.70;;;;;;5466202;26;20594;-81
2024/04/14 03:33:22;;;;;;;3.83;2.90;;;12.30;97.00;;;;;;5471369;26;20560;-81
2024/04/14 03:36:00;;;;;;;3.53;2.40;;;12.30;96.80;;;;;;5473982;26;21218;-81
2024/04/14 03:38:29;;;;;;;2.97;2.40;;;12.30;96.60;;;;;;5474056;26;20688;-82
2024/04/14 03:40:58;;;;;;;6.57;3.33;;;12.30;96.40;;;;;;5471876;26;20721;-81
2024/04/14 03:43:29;;;;;;;4.80;2.93;;;12.30;96.60;;;;;;5471784;26;20634;-81
2024/04/14 03:45:58;;;;;;;2.97;2.37;;;12.30;96.50;;;;;;5474146;26;20651;-81
2024/04/14 03:48:27;;;;;;;2.30;2.10;;;12.30;96.50;;;;;;5475002;26;20709;-82
2024/04/14 03:50:53;;;;;;;4.00;2.67;;;12.30;96.30;;;;;;5469966;26;20673;-81
2024/04/14 03:53:22;;;;;;;2.90;2.70;;;12.20;96.80;;;;;;5471183;26;20557;-81
2024/04/14 03:55:51;;;;;;;4.00;2.90;;;12.20;97.00;;;;;;5471803;26;21213;-81
2024/04/14 03:58:17;;;;;;;2.90;2.30;;;12.20;97.20;;;;;;5471487;26;21172;-81
2024/04/14 04:00:49;;;;;;;2.70;2.50;;;12.30;96.80;;;;;;5470431;26;21021;-81
2024/04/14 04:03:15;;;;;;;2.53;2.13;;;12.30;96.60;;;;;;5457024;26;20706;-81
2024/04/14 04:05:44;;;;;;;5.10;2.60;;;12.20;97.00;;;;;;5471527;26;20926;-81
2024/04/14 04:08:10;;;;;;;4.80;2.90;;;12.20;96.90;;;;;;5471049;26;21357;-82
2024/04/14 04:10:39;;;;;;;2.90;2.70;;;12.20;97.40;;;;;;5464794;26;20564;-81
2024/04/14 04:13:05;;;;;;;2.93;2.70;;;12.20;97.50;;;;;;5470732;26;20601;-82
2024/04/14 04:15:33;;;;;;;3.73;2.70;;;12.20;97.60;;;;;;5471747;26;20670;-82
2024/04/14 04:18:02;;;;;;;2.80;2.50;;;12.20;97.20;;;;;;5455041;26;20589;-82
2024/04/14 04:20:31;;;;;;;5.40;2.53;;;12.10;96.80;;;;;;5472751;26;20570;-82
2024/04/14 04:22:57;;;;;;;2.50;2.27;;;11.90;97.50;;;;;;5472775;26;20904;-81
2024/04/14 04:25:26;;;;;;;4.10;2.67;;;11.60;98.30;;;;;;5472966;26;21042;-81
2024/04/14 04:27:52;;;;;;;2.60;2.30;;;11.50;98.60;;;;;;5472447;26;20567;-81
2024/04/14 04:30:21;;;;;;;2.80;2.60;;;11.50;99.00;;;;;;5471473;26;20669;-82
2024/04/14 04:32:48;;;;;;;2.40;2.20;;;11.60;98.80;;;;;;5473952;26;20556;-82
2024/04/14 04:35:19;;;;;;;3.60;2.80;;;11.60;98.50;;;;;;5470907;26;20557;-82
2024/04/14 04:37:45;;;;;;;4.60;2.73;;;11.70;98.70;;;;;;5467792;26;20673;-82
2024/04/14 04:40:14;;;;;;;2.90;2.70;;;11.70;98.60;;;;;;5470938;26;20639;-82
2024/04/14 04:42:40;;;;;;;3.10;2.80;;;11.70;98.40;;;;;;5471956;26;21148;-82
2024/04/14 04:45:09;;;;;;;3.33;2.90;;;11.80;98.10;;;;;;5474643;26;20719;-82
2024/04/14 04:47:36;;;;;;;2.87;2.60;;;11.80;97.90;;;;;;5473774;26;20608;-81
2024/04/14 04:50:05;;;;;;;2.50;2.30;;;11.70;98.10;;;;;;5472347;26;21058;-83
2024/04/14 04:52:33;;;;;;;3.37;2.70;;;11.70;98.70;;;;;;5471591;26;20560;-83
2024/04/14 04:55:02;;;;;;;6.90;3.10;;;11.60;98.70;;;;;;5470562;26;20674;-82
2024/04/14 04:57:29;;;;;;;4.00;2.80;;;11.70;98.50;;;;;;5445921;26;20674;-82
2024/04/14 04:59:57;;;;;;;3.23;2.93;;;11.80;98.20;;;;;;5464344;26;20666;-81
2024/04/14 05:02:24;;;;;;;4.67;3.00;;;11.80;98.20;;;;;;5470604;26;20632;-82
2024/04/14 05:04:55;;;;;;;2.97;2.77;;;11.80;98.50;;;;;;5462159;26;20552;-81
2024/04/14 05:07:21;;;;;;;4.10;2.80;;;11.80;98.70;;;;;;5474139;26;21172;-82
2024/04/14 05:09:55;;;;;;;2.40;2.20;;;11.80;98.70;;;;;;5472023;26;20568;-81
2024/04/14 05:12:21;;;;;;;3.17;2.70;;;11.50;99.00;;;;;;5466064;26;20557;-82
2024/04/14 05:14:50;;;;;;;3.13;2.43;;;11.40;99.00;;;;;;5470543;26;20754;-81
2024/04/14 05:17:16;;;;;;;4.40;2.63;;;11.30;99.00;;;;;;5454676;26;20700;-82
2024/04/14 05:19:45;;;;;;;2.27;2.10;;;11.40;99.00;;;;;;5473070;26;20635;-82
2024/04/14 05:22:11;;;;;;;3.67;2.77;;;11.50;99.00;;;;;;5469878;26;20560;-82
2024/04/14 05:24:40;;;;;;;2.90;2.47;;;11.60;99.00;;;;;;5472011;26;20758;-82
2024/04/14 05:27:09;;;;;;;2.63;2.43;;;11.50;99.00;;;;;;5472458;26;21120;-82
2024/04/14 05:29:40;;;;;;;2.80;2.60;;;11.40;99.00;;;;;;5472212;26;20617;-81
2024/04/14 05:32:06;;;;;;;3.27;2.67;;;11.40;99.00;;;;;;5454066;26;20549;-82
2024/04/14 05:34:35;;;;;;;2.90;2.70;;;11.50;99.00;;;;;;5469502;26;20552;-82
2024/04/14 05:37:02;;;;;;;2.87;2.57;;;11.60;99.00;;;;;;5470213;26;20650;-82
2024/04/14 05:39:30;;;;;;;2.83;2.63;;;11.70;99.00;;;;;;5471906;26;21602;-82
2024/04/14 05:41:57;;;;;;;5.07;3.43;;;11.70;99.00;;;;;;5472353;26;20573;-80
2024/04/14 05:44:28;;;;;;;3.53;2.40;;;11.60;99.00;;;;;;5472450;26;20581;-81
2024/04/14 05:46:54;;;;;;;4.30;2.87;;;11.50;99.00;;;;;;5467982;26;20636;-81
2024/04/14 05:49:24;;;;;;;3.37;2.50;;;11.60;99.00;;;;;;5468987;26;20540;-81
2024/04/14 05:51:50;;;;;;;3.00;2.40;;;11.60;99.00;;;;;;5468782;26;20680;-81
2024/04/14 05:54:19;;;;;;;5.23;3.27;;;11.70;99.00;;;;;;5464414;26;20560;-81
2024/04/14 05:56:45;;;;;;;3.03;2.73;;;11.80;99.00;;;;;;5471299;26;20647;-81
2024/04/14 05:59:14;;;;;;;3.23;2.93;;;11.80;99.00;;;;;;5471291;26;20653;-81
2024/04/14 06:01:43;;;;;;;2.60;2.40;;;11.90;99.00;;;;;;5453606;26;20565;-81
2024/04/14 06:04:11;;;;;;;2.83;2.53;;;12.00;99.00;;;;;;5469546;26;21352;-81
2024/04/14 06:06:37;;;;;;;2.60;2.40;;;12.00;99.00;;;;;;5468881;26;20580;-81
2024/04/14 06:09:06;;;;;;;4.50;3.20;;;12.10;99.00;;;;;;5455791;26;20595;-81
2024/04/14 06:11:33;;;;;;;2.70;2.40;;;12.20;99.00;;;;;;5469576;26;21135;-81
2024/04/14 06:14:04;;;;;;;3.13;2.87;;;12.30;99.00;;;;;;5469470;26;20661;-81
2024/04/14 06:16:30;;;;;;;3.30;3.00;;;12.30;99.00;;;;;;5465780;26;21335;-81
2024/04/14 06:19:02;;;;;;;5.80;3.57;;;12.40;99.00;;;;;;5475796;26;20549;-81
2024/04/14 06:21:28;;;;;;;5.20;2.87;;;12.50;99.00;;;;;;5458552;26;20548;-81
2024/04/14 06:23:57;;;;;;;2.80;2.60;;;12.60;99.00;;;;;;5475567;26;20588;-81
2024/04/14 06:26:23;;;;;;;3.20;2.77;;;12.70;99.00;;;;;;5472864;26;20572;-80
2024/04/14 06:28:52;;;;;;;5.03;2.50;;;12.80;99.00;;;;;;5474614;26;20984;-81
2024/04/14 06:31:18;;;;;;;3.43;2.70;;;12.90;99.00;;;;;;5476587;26;20770;-81
2024/04/14 06:33:47;;;;;;;3.00;2.70;;;12.90;99.00;;;;;;5474828;26;20565;-82
2024/04/14 06:36:16;;;;;;;2.60;2.40;;;13.00;99.00;;;;;;5472266;26;20556;-80
2024/04/14 06:38:45;;;;;;;4.70;2.97;;;13.10;99.00;;;;;;5472217;26;20985;-81
2024/04/14 06:41:14;;;;;;;3.27;2.77;;;13.20;99.00;;;;;;5475037;26;20611;-81
2024/04/14 06:43:40;;;;;;;3.87;2.60;;;13.30;99.00;;;;;;5478868;26;20608;-81
2024/04/14 06:46:09;;;;;;;4.33;3.03;;;13.40;99.00;;;;;;5475178;26;20683;-81
2024/04/14 06:48:35;;;;;;;4.20;3.10;;;13.60;99.00;;;;;;5483220;26;21241;-81
2024/04/14 06:51:04;;;;;;;3.63;2.83;;;13.70;99.00;;;;;;5478324;26;20580;-82
2024/04/14 06:53:33;;;;;;;4.23;3.17;;;13.80;99.00;;;;;;5476887;26;20568;-81
2024/04/14 06:56:02;;;;;;;4.60;2.70;;;13.90;99.00;;;;;;5466798;26;20557;-82
2024/04/14 06:58:28;;;;;;;3.83;2.90;;;14.00;99.00;;;;;;5471277;26;20545;-81
2024/04/14 07:00:57;;;;;;;4.27;2.83;;;14.10;99.00;;;;;;5479894;26;20561;-82
2024/04/14 07:03:23;;;;;;;6.70;2.57;;;14.20;99.00;;;;;;5475697;26;21112;-81
2024/04/14 07:05:52;;;;;;;4.27;2.77;;;14.40;99.00;;;;;;5471433;26;21179;-81
2024/04/14 07:08:18;;;;;;;4.93;3.07;;;14.40;98.40;;;;;;5472802;26;20576;-82
2024/04/14 07:10:50;;;;;;;2.90;2.33;;;14.70;97.50;;;;;;5475352;26;20682;-82
2024/04/14 07:13:18;;;;;;;2.67;2.47;;;14.80;96.50;;;;;;5475550;26;20556;-83
2024/04/14 07:15:47;;;;;;;3.30;2.70;;;14.80;96.50;;;;;;5471497;26;20553;-82
2024/04/14 07:18:13;;;;;;;2.77;2.40;;;14.90;97.00;;;;;;5471733;26;20670;-79
2024/04/14 07:20:42;;;;;;;2.80;2.60;;;15.00;96.20;;;;;;5456905;26;20925;-82
2024/04/14 07:23:08;;;;;;;5.07;2.63;;;15.00;96.50;;;;;;5475167;26;20551;-82
2024/04/14 07:25:37;;;;;;;3.20;2.37;;;15.20;95.70;;;;;;5467638;26;20565;-80
2024/04/14 07:28:06;;;;;;;2.83;2.57;;;15.20;95.30;;;;;;5472054;26;21113;-82
2024/04/14 07:30:35;;;;;;;5.60;2.50;;;15.30;93.90;;;;;;5472787;26;20659;-81
2024/04/14 07:33:01;;;;;;;3.37;2.40;;;15.30;93.90;;;;;;5474543;26;20623;-81
2024/04/14 07:35:30;;;;;;;2.23;2.03;;;15.40;92.70;;;;;;5476749;26;20727;-81
2024/04/14 07:37:56;;;;;;;6.20;2.67;;;15.50;92.00;;;;;;5455145;26;20549;-81
2024/04/14 07:40:25;;;;;;;3.87;2.47;;;15.60;92.70;;;;;;5482087;26;20670;-81
2024/04/14 07:42:51;;;;;;;2.80;2.60;;;15.70;91.90;;;;;;5479050;26;20565;-80
2024/04/14 07:45:22;;;;;;;2.50;2.30;;;15.70;92.30;;;;;;5476362;26;21417;-80
2024/04/14 07:47:49;;;;;;;2.50;2.30;;;15.80;93.10;;;;;;5460175;26;21337;-80
2024/04/14 07:50:18;;;;;;;3.53;2.53;;;15.90;92.20;;;;;;5472050;26;20795;-80
2024/04/14 07:52:44;;;;;;;2.73;2.43;;;16.00;92.20;;;;;;5474794;26;20564;-80
2024/04/14 07:55:13;;;;;;;3.70;3.10;;;16.10;93.10;;;;;;5473405;26;20577;-80
2024/04/14 07:57:39;;;;;;;3.03;2.77;;;16.10;93.50;;;;;;5470938;26;20556;-80
2024/04/14 08:00:09;;;;;;;2.73;2.53;;;16.20;93.60;;;;;;5470303;26;20647;-81
2024/04/14 08:02:38;;;;;;;3.87;3.00;;;16.30;93.50;;;;;;5475457;26;20601;-80
2024/04/14 08:05:07;;;;;;;6.70;2.70;;;16.40;93.40;;;;;;5474193;26;20557;-80
2024/04/14 08:07:33;;;;;;;5.50;2.50;;;16.50;94.10;;;;;;5471507;26;20572;-80
2024/04/14 08:10:02;;;;;;;2.83;2.53;;;16.60;93.80;;;;;;5475144;26;20596;-80
2024/04/14 08:12:28;;;;;;;2.67;2.40;;;16.80;94.00;;;;;;5475312;26;20565;-82
2024/04/14 08:14:57;;;;;;;2.90;2.60;;;16.90;94.10;;;;;;5466985;26;20560;-79
2024/04/14 08:17:23;;;;;;;2.80;2.50;;;17.20;93.50;;;;;;5481712;26;20561;-81
2024/04/14 08:19:55;;;;;;;4.60;2.23;;;17.40;92.50;;;;;;5472339;26;21292;-81
2024/04/14 08:22:21;;;;;;;2.40;2.20;;;17.50;91.70;;;;;;5470950;26;20553;-81
2024/04/14 08:24:50;;;;;;;2.23;1.70;;;17.60;92.30;;;;;;5473582;26;20646;-82
2024/04/14 08:27:16;;;;;;;3.10;1.83;;;17.80;91.00;;;;;;5474034;26;20597;-81
2024/04/14 08:29:46;;;;;;;4.40;2.00;;;17.90;90.20;;;;;;5472704;26;20663;-82
2024/04/14 08:32:12;;;;;;;2.97;2.23;;;17.90;90.30;;;;;;5469921;26;20573;-82
2024/04/14 08:34:41;;;;;;;2.70;2.20;;;18.00;90.50;;;;;;5469473;26;20717;-81
2024/04/14 08:37:10;;;;;;;2.20;1.80;;;18.10;90.10;;;;;;5469020;26;20681;-81
2024/04/14 08:39:39;;;;;;;3.10;2.13;;;18.10;89.20;;;;;;5476542;26;22453;-81
2024/04/14 08:42:09;;;;;;;2.30;2.10;;;18.30;88.30;;;;;;5474135;26;20565;-81
2024/04/14 08:44:39;;;;;;;3.43;2.23;;;18.40;88.60;;;;;;5473391;26;20552;-80
2024/04/14 08:47:06;;;;;;;2.40;2.20;;;18.40;88.50;;;;;;5473434;26;21009;-80
2024/04/14 08:49:35;;;;;;;2.43;1.80;;;18.50;89.80;;;;;;5473812;26;20564;-78
2024/04/14 08:52:05;;;;;;;2.37;1.93;;;18.60;89.20;;;;;;5472889;26;20609;-78
2024/04/14 08:54:36;;;;;;;3.10;2.00;;;18.80;88.00;;;;;;5464973;26;20560;-79
2024/04/14 08:57:04;;;;;;;3.20;1.90;;;18.80;87.50;;;;;;5471592;26;21255;-78
2024/04/14 08:59:33;;;;;;;2.40;2.10;;;18.90;87.50;;;;;;5476023;26;20541;-78
2024/04/14 09:02:01;;;;;;;2.90;2.10;;;19.00;86.90;;;;;;5472389;26;20605;-78
2024/04/14 09:04:30;;;;;;;2.03;1.83;;;19.10;87.20;;;;;;5469562;26;20560;-78
2024/04/14 09:06:57;;;;;;;2.10;1.70;;;19.10;85.80;;;;;;5452204;26;21845;-77
2024/04/14 09:09:25;;;;;;;3.10;2.23;;;19.30;86.90;;;;;;5473357;26;20604;-77
2024/04/14 09:11:58;;;;;;;2.77;2.37;;;19.40;86.50;;;;;;5468903;26;20549;-77
2024/04/14 09:14:27;;;;;;;5.23;2.37;;;19.40;86.00;;;;;;5455968;26;20646;-77
2024/04/14 09:16:53;;;;;;;2.10;2.00;;;19.60;85.80;;;;;;5469034;26;21471;-77
2024/04/14 09:19:22;;;;;;;3.47;2.10;;;19.60;85.80;;;;;;5469182;26;20557;-80
2024/04/14 09:21:49;;;;;;;2.17;1.70;;;19.60;86.30;;;;;;5474465;26;20658;-78
2024/04/14 09:24:18;;;;;;;4.57;2.20;;;19.70;85.50;;;;;;5471559;26;20711;-76
2024/04/14 09:26:44;;;;;;;2.60;2.30;;;19.80;85.60;;;;;;5473021;26;20561;-78
2024/04/14 09:29:16;;;;;;;2.40;2.00;;;20.10;84.10;;;;;;5469075;26;20635;-78
2024/04/14 09:31:42;;;;;;;2.10;1.90;;;20.20;84.40;;;;;;5469232;26;20657;-79
2024/04/14 09:34:12;;;;;;;2.33;2.10;;;20.20;85.20;;;;;;5470901;26;20617;-78
2024/04/14 09:36:39;;;;;;;4.10;2.03;;;20.20;84.50;;;;;;5472520;26;21035;-78
2024/04/14 09:39:08;;;;;;;4.80;2.20;;;20.20;83.70;;;;;;5472568;26;20688;-77
2024/04/14 09:41:36;;;;;;;4.00;2.07;;;20.30;83.00;;;;;;5469712;26;21018;-78
2024/04/14 09:44:05;;;;;;;3.20;2.00;;;20.40;84.80;;;;;;5470981;26;20557;-79
2024/04/14 09:46:36;;;;;;;2.77;1.83;;;20.50;86.50;;;;;;5473270;26;20612;-79
2024/04/14 09:49:06;;;;;;;3.50;1.90;;;20.60;83.30;;;;;;5471628;26;20561;-79
2024/04/14 09:51:34;;;;;;;2.00;1.90;;;20.70;83.70;;;;;;5473198;26;20573;-77
2024/04/14 09:54:05;;;;;;;2.80;2.00;;;20.80;83.80;;;;;;5472761;26;20900;-78
2024/04/14 09:56:31;;;;;;;2.80;2.10;;;20.80;84.10;;;;;;5475734;26;20955;-78
2024/04/14 09:59:00;;;;;;;2.30;2.10;;;20.90;83.40;;;;;;5475002;26;20682;-78
2024/04/14 10:01:30;;;;;;;2.43;2.23;;;20.90;84.90;;;;;;5476218;25;20616;-78
2024/04/14 10:04:03;;;;;;;2.40;2.20;;;21.10;84.20;;;;;;5472613;26;20553;-78
2024/04/14 10:06:31;;;;;;;2.73;1.87;;;21.20;83.90;;;;;;5467868;26;20561;-77
2024/04/14 10:09:00;;;;;;;3.63;2.03;;;21.30;83.10;;;;;;5473493;26;21170;-77
2024/04/14 10:11:27;;;;;;;2.77;1.97;;;21.40;82.60;;;;;;5453552;26;20564;-78
2024/04/14 10:13:58;;;;;;;2.40;1.80;;;21.50;82.90;;;;;;5475364;26;20557;-74
2024/04/14 10:16:26;;;;;;;1.87;1.77;;;21.50;83.10;;;;;;5474095;26;20613;-79
2024/04/14 10:18:55;;;;;;;2.10;2.00;;;21.50;82.80;;;;;;5474347;26;20649;-77
2024/04/14 10:21:24;;;;;;;2.37;1.70;;;21.60;81.40;;;;;;5475017;26;20572;-79
2024/04/14 10:23:56;;;;;;;1.97;1.77;;;21.70;83.10;;;;;;5466970;26;20592;-79
2024/04/14 10:26:22;;;;;;;3.07;2.20;;;21.70;82.30;;;;;;5472010;26;20552;-79
2024/04/14 10:28:52;;;;;;;2.20;2.00;;;21.80;82.80;;;;;;5473882;26;20601;-79
2024/04/14 10:31:28;;;;;;;1.83;1.73;;;21.90;81.80;;;;;;5475539;26;20647;-78
2024/04/14 10:34:05;;;;;;;2.80;2.27;;;22.10;80.60;;;;;;5470976;26;20608;-78
2024/04/14 10:36:35;;;;;;;2.47;1.90;;;22.20;80.80;;;;;;5467357;26;20708;-79
2024/04/14 10:39:05;;;;;;;1.90;1.80;;;22.20;77.90;;;;;;5476545;25;20564;-80
2024/04/14 10:41:31;;;;;;;2.00;1.60;;;22.20;79.00;;;;;;5477282;26;20655;-78
2024/04/14 10:44:00;;;;;;;4.53;2.00;;;22.20;80.10;;;;;;5475235;26;20560;-79
2024/04/14 10:46:27;;;;;;;3.10;1.93;;;22.20;80.50;;;;;;5460910;26;20613;-80
2024/04/14 10:48:57;;;;;;;2.10;1.80;;;22.40;78.80;;;;;;5471216;26;20622;-79
2024/04/14 10:51:23;;;;;;;3.40;2.07;;;22.40;76.50;;;;;;5473331;26;20625;-81
2024/04/14 10:53:55;;;;;;;2.93;2.20;;;22.40;79.70;;;;;;5475196;26;21124;-80
2024/04/14 10:56:39;;;;;;;3.20;2.67;;;22.50;78.50;;;;;;5476132;26;20572;-81
2024/04/14 10:59:08;;;;;;;2.73;1.77;;;22.60;77.70;;;;;;5473288;26;20549;-80
2024/04/14 11:01:34;;;;;;;2.37;2.00;;;22.60;78.50;;;;;;5474590;26;20565;-81
2024/04/14 11:04:05;;;;;;;2.93;2.20;;;22.70;77.70;;;;;;5474335;26;20726;-81
2024/04/14 11:06:37;;;;;;;2.37;2.10;;;22.70;76.70;;;;;;5467493;26;20569;-82
2024/04/14 11:09:09;;;;;;;3.40;2.10;;;22.70;76.40;;;;;;5471808;26;20604;-80
2024/04/14 11:11:36;;;;;;;2.50;2.30;;;22.80;75.30;;;;;;5456142;25;20723;-80
2024/04/14 11:14:05;;;;;;;2.37;2.17;;;22.90;74.70;;;;;;5469604;26;20568;-81
2024/04/14 11:16:32;;;;;;;2.33;2.03;;;23.00;75.40;;;;;;5473628;26;20545;-82
2024/04/14 11:19:01;;;;;;;2.13;1.90;;;23.00;75.80;;;;;;5472752;26;20560;-79
2024/04/14 11:21:27;;;;;;;2.63;2.07;;;23.00;77.30;;;;;;5467834;26;20954;-76
2024/04/14 11:23:57;;;;;;;3.33;2.03;;;23.20;78.10;;;;;;5473311;26;20592;-79
2024/04/14 11:26:26;;;;;;;2.20;1.87;;;23.30;76.90;;;;;;5466231;26;20568;-82
2024/04/14 11:28:55;;;;;;;2.53;1.90;;;23.40;75.30;;;;;;5472473;26;20614;-80
2024/04/14 11:31:23;;;;;;;2.27;1.97;;;23.40;73.80;;;;;;5473106;26;20732;-82
2024/04/14 11:33:58;;;;;;;2.37;2.17;;;23.40;75.60;;;;;;5475514;26;20660;-81
2024/04/14 11:36:30;;;;;;;2.60;1.97;;;23.50;76.50;;;;;;5465889;26;20659;-79
2024/04/14 11:38:59;;;;;;;3.00;1.60;;;23.70;74.70;;;;;;5468727;26;20623;-82
2024/04/14 11:41:27;;;;;;;3.60;2.20;;;23.70;75.40;;;;;;5454986;26;20564;-81
2024/04/14 11:43:56;;;;;;;2.90;1.90;;;23.80;75.30;;;;;;5468659;26;20616;-82
2024/04/14 11:46:23;;;;;;;2.77;2.07;;;23.80;74.00;;;;;;5454690;26;21254;-83
2024/04/14 11:48:52;;;;;;;2.23;1.97;;;23.80;73.10;;;;;;5473507;26;20557;-82
2024/04/14 11:51:18;;;;;;;2.43;1.90;;;23.90;74.30;;;;;;5472306;26;20557;-82
2024/04/14 11:53:47;;;;;;;2.40;1.83;;;24.00;74.50;;;;;;5459695;26;20685;-83
2024/04/14 11:56:13;;;;;;;2.00;1.90;;;23.90;74.40;;;;;;5472332;26;20640;-83
2024/04/14 11:58:44;;;;;;;2.10;1.80;;;24.00;73.30;;;;;;5472204;26;20561;-82
2024/04/14 12:01:10;;;;;;;3.33;1.60;;;24.00;73.70;;;;;;5455222;26;20617;-83
2024/04/14 12:03:39;;;;;;;1.70;1.60;;;24.00;73.50;;;;;;5474946;26;21221;-82
2024/04/14 12:06:06;;;;;;;2.80;1.87;;;24.00;71.70;;;;;;5471693;26;20560;-82
2024/04/14 12:08:34;;;;;;;4.00;2.20;;;24.00;71.50;;;;;;5473109;26;20560;-82
2024/04/14 12:11:00;;;;;;;2.93;2.10;;;24.00;72.50;;;;;;5474465;26;20565;-83
2024/04/14 12:13:29;;;;;;;3.00;2.10;;;24.00;73.50;;;;;;5475680;26;20553;-82
2024/04/14 12:15:58;;;;;;;2.40;1.90;;;24.00;74.10;;;;;;5461360;26;21292;-84
2024/04/14 12:18:27;;;;;;;2.10;1.90;;;24.10;72.20;;;;;;5471374;26;20621;-81
2024/04/14 12:20:53;;;;;;;3.20;1.70;;;24.10;71.00;;;;;;5472961;26;20560;-86
2024/04/14 12:23:22;;;;;;;2.47;1.93;;;24.10;71.40;;;;;;5474956;26;20565;-82
2024/04/14 12:25:48;;;;;;;2.47;1.83;;;24.10;71.90;;;;;;5477485;26;20686;-83
2024/04/14 12:28:17;;;;;;;2.80;1.97;;;24.10;71.50;;;;;;5474294;26;20576;-85
2024/04/14 12:30:43;;;;;;;2.17;2.00;;;24.10;71.60;;;;;;5473677;26;20564;-83
2024/04/14 12:33:15;;;;;;;2.70;1.90;;;24.10;71.50;;;;;;5470990;26;20565;-83
2024/04/14 12:35:41;;;;;;;2.37;2.17;;;24.20;70.90;;;;;;5455722;26;20642;-83
2024/04/14 12:38:10;;;;;;;1.73;1.63;;;24.20;71.90;;;;;;5471593;26;20643;-82
2024/04/14 12:40:37;;;;;;;3.00;1.87;;;24.20;72.10;;;;;;5471517;26;20548;-83
2024/04/14 12:43:06;;;;;;;5.30;2.30;;;24.20;71.60;;;;;;5475265;26;20694;-83
2024/04/14 12:45:33;;;;;;;2.17;1.70;;;24.20;72.60;;;;;;5473964;26;20565;-82
2024/04/14 12:48:02;;;;;;;3.97;1.67;;;24.30;71.50;;;;;;5464644;26;20553;-82
2024/04/14 12:50:31;;;;;;;2.23;2.03;;;24.30;70.60;;;;;;5471136;26;20708;-82
2024/04/14 12:53:00;;;;;;;3.37;2.43;;;24.30;70.30;;;;;;5473612;26;20660;-82